sensor_id;sensor_type;location;lat;lon;timestamp;temperature;humidity
33673;DHT22;20011;51.510;9.942;2022-09-01T00:01:47;17.40;78.60
33673;DHT22;20011;51.510;9.942;2022-09-01T00:04:17;17.40;77.90
33673;DHT22;20011;51.510;9.942;2022-09-01T00:06:47;17.30;77.90
33673;DHT22;20011;51.510;9.942;2022-09-01T00:09:17;17.30;78.10
33673;DHT22;20011;51.510;9.942;2022-09-01T00:11:47;17.20;77.20
33673;DHT22;20011;51.510;9.942;2022-09-01T00:14:18;17.30;76.70
33673;DHT22;20011;51.510;9.942;2022-09-01T00:17:02;17.20;77.90
33673;DHT22;20011;51.510;9.942;2022-09-01T00:19:30;17.20;77.20
33673;DHT22;20011;51.510;9.942;2022-09-01T00:21:59;17.20;77.80
33673;DHT22;20011;51.510;9.942;2022-09-01T00:24:27;17.10;78.00
33673;DHT22;20011;51.510;9.942;2022-09-01T00:26:55;17.10;77.70
33673;DHT22;20011;51.510;9.942;2022-09-01T00:29:24;17.10;78.20
33673;DHT22;20011;51.510;9.942;2022-09-01T00:31:52;17.10;78.70
33673;DHT22;20011;51.510;9.942;2022-09-01T00:34:20;17.10;78.50
33673;DHT22;20011;51.510;9.942;2022-09-01T00:36:48;17.00;78.60
33673;DHT22;20011;51.510;9.942;2022-09-01T00:39:15;16.90;78.70
33673;DHT22;20011;51.510;9.942;2022-09-01T00:41:42;17.00;78.40
33673;DHT22;20011;51.510;9.942;2022-09-01T00:44:14;17.00;77.70
33673;DHT22;20011;51.510;9.942;2022-09-01T00:46:44;16.90;76.70
33673;DHT22;20011;51.510;9.942;2022-09-01T00:49:30;16.90;76.70
33673;DHT22;20011;51.510;9.942;2022-09-01T00:54:43;16.70;77.90
33673;DHT22;20011;51.510;9.942;2022-09-01T00:57:10;16.60;77.90
33673;DHT22;20011;51.510;9.942;2022-09-01T00:59:45;16.60;78.50
33673;DHT22;20011;51.510;9.942;2022-09-01T01:02:12;16.50;78.70
33673;DHT22;20011;51.510;9.942;2022-09-01T01:04:40;16.40;79.00
33673;DHT22;20011;51.510;9.942;2022-09-01T01:07:10;16.40;79.20
33673;DHT22;20011;51.510;9.942;2022-09-01T01:09:41;16.30;79.10
33673;DHT22;20011;51.510;9.942;2022-09-01T01:12:10;16.20;78.90
33673;DHT22;20011;51.510;9.942;2022-09-01T01:14:45;16.20;79.20
33673;DHT22;20011;51.510;9.942;2022-09-01T01:17:21;16.10;79.50
33673;DHT22;20011;51.510;9.942;2022-09-01T01:19:54;16.10;80.20
33673;DHT22;20011;51.510;9.942;2022-09-01T01:28:13;15.90;81.10
33673;DHT22;20011;51.510;9.942;2022-09-01T01:30:48;15.90;81.50
33673;DHT22;20011;51.510;9.942;2022-09-01T01:33:21;15.80;81.40
33673;DHT22;20011;51.510;9.942;2022-09-01T01:35:51;15.90;81.70
33673;DHT22;20011;51.510;9.942;2022-09-01T01:38:18;15.80;82.10
33673;DHT22;20011;51.510;9.942;2022-09-01T01:40:50;15.80;82.50
33673;DHT22;20011;51.510;9.942;2022-09-01T01:43:22;15.70;82.20
33673;DHT22;20011;51.510;9.942;2022-09-01T01:45:52;15.70;82.20
33673;DHT22;20011;51.510;9.942;2022-09-01T01:48:24;15.80;82.60
33673;DHT22;20011;51.510;9.942;2022-09-01T01:50:53;15.70;82.70
33673;DHT22;20011;51.510;9.942;2022-09-01T01:53:21;15.60;82.70
33673;DHT22;20011;51.510;9.942;2022-09-01T01:55:50;15.60;82.90
33673;DHT22;20011;51.510;9.942;2022-09-01T01:58:20;15.60;83.40
33673;DHT22;20011;51.510;9.942;2022-09-01T02:00:50;15.50;83.70
33673;DHT22;20011;51.510;9.942;2022-09-01T02:03:20;15.60;83.80
33673;DHT22;20011;51.510;9.942;2022-09-01T02:05:51;15.50;83.40
33673;DHT22;20011;51.510;9.942;2022-09-01T02:08:21;15.50;83.60
33673;DHT22;20011;51.510;9.942;2022-09-01T02:10:51;15.50;83.80
33673;DHT22;20011;51.510;9.942;2022-09-01T02:13:21;15.50;83.80
33673;DHT22;20011;51.510;9.942;2022-09-01T02:16:05;15.50;83.90
33673;DHT22;20011;51.510;9.942;2022-09-01T02:18:36;15.50;83.80
33673;DHT22;20011;51.510;9.942;2022-09-01T02:21:05;15.50;83.60
33673;DHT22;20011;51.510;9.942;2022-09-01T02:23:40;15.40;83.50
33673;DHT22;20011;51.510;9.942;2022-09-01T02:26:08;15.40;83.70
33673;DHT22;20011;51.510;9.942;2022-09-01T02:28:47;15.40;83.60
33673;DHT22;20011;51.510;9.942;2022-09-01T02:31:24;15.30;83.90
33673;DHT22;20011;51.510;9.942;2022-09-01T02:33:56;15.30;83.80
33673;DHT22;20011;51.510;9.942;2022-09-01T02:36:24;15.30;82.80
33673;DHT22;20011;51.510;9.942;2022-09-01T02:38:52;15.30;81.80
33673;DHT22;20011;51.510;9.942;2022-09-01T02:41:23;15.30;81.30
33673;DHT22;20011;51.510;9.942;2022-09-01T02:43:51;15.20;80.40
33673;DHT22;20011;51.510;9.942;2022-09-01T02:46:20;15.20;80.90
33673;DHT22;20011;51.510;9.942;2022-09-01T02:48:51;15.20;81.00
33673;DHT22;20011;51.510;9.942;2022-09-01T02:51:21;15.00;81.40
33673;DHT22;20011;51.510;9.942;2022-09-01T02:53:50;15.00;81.70
33673;DHT22;20011;51.510;9.942;2022-09-01T02:56:21;15.00;81.70
33673;DHT22;20011;51.510;9.942;2022-09-01T02:58:51;15.00;81.90
33673;DHT22;20011;51.510;9.942;2022-09-01T03:01:22;14.90;82.20
33673;DHT22;20011;51.510;9.942;2022-09-01T03:03:54;14.90;82.70
33673;DHT22;20011;51.510;9.942;2022-09-01T03:06:23;14.80;83.30
33673;DHT22;20011;51.510;9.942;2022-09-01T03:08:52;14.90;83.00
33673;DHT22;20011;51.510;9.942;2022-09-01T03:11:20;14.80;83.40
33673;DHT22;20011;51.510;9.942;2022-09-01T03:13:47;14.70;83.60
33673;DHT22;20011;51.510;9.942;2022-09-01T03:16:15;14.70;83.70
33673;DHT22;20011;51.510;9.942;2022-09-01T03:18:42;14.70;83.90
33673;DHT22;20011;51.510;9.942;2022-09-01T03:21:10;14.60;84.20
33673;DHT22;20011;51.510;9.942;2022-09-01T03:23:44;14.60;84.50
33673;DHT22;20011;51.510;9.942;2022-09-01T03:26:12;14.60;84.60
33673;DHT22;20011;51.510;9.942;2022-09-01T03:28:40;14.50;84.50
33673;DHT22;20011;51.510;9.942;2022-09-01T03:31:07;14.40;84.60
33673;DHT22;20011;51.510;9.942;2022-09-01T03:33:35;14.40;85.20
33673;DHT22;20011;51.510;9.942;2022-09-01T03:36:06;14.40;85.40
33673;DHT22;20011;51.510;9.942;2022-09-01T03:38:41;14.40;85.70
33673;DHT22;20011;51.510;9.942;2022-09-01T03:41:10;14.40;85.60
33673;DHT22;20011;51.510;9.942;2022-09-01T03:43:39;14.30;85.80
33673;DHT22;20011;51.510;9.942;2022-09-01T03:46:14;14.30;85.60
33673;DHT22;20011;51.510;9.942;2022-09-01T03:48:49;14.20;85.60
33673;DHT22;20011;51.510;9.942;2022-09-01T03:51:18;14.30;85.80
33673;DHT22;20011;51.510;9.942;2022-09-01T03:53:46;14.30;85.90
33673;DHT22;20011;51.510;9.942;2022-09-01T03:56:13;14.20;85.70
33673;DHT22;20011;51.510;9.942;2022-09-01T03:58:42;14.20;85.80
33673;DHT22;20011;51.510;9.942;2022-09-01T04:01:16;14.10;86.00
33673;DHT22;20011;51.510;9.942;2022-09-01T04:03:44;14.10;86.20
33673;DHT22;20011;51.510;9.942;2022-09-01T04:06:16;14.10;86.10
33673;DHT22;20011;51.510;9.942;2022-09-01T04:08:45;14.10;85.90
33673;DHT22;20011;51.510;9.942;2022-09-01T04:11:16;14.10;86.30
33673;DHT22;20011;51.510;9.942;2022-09-01T04:13:46;14.10;86.20
33673;DHT22;20011;51.510;9.942;2022-09-01T04:16:23;14.00;86.60
33673;DHT22;20011;51.510;9.942;2022-09-01T04:19:11;14.10;86.70
33673;DHT22;20011;51.510;9.942;2022-09-01T04:21:48;14.00;86.80
33673;DHT22;20011;51.510;9.942;2022-09-01T04:24:21;14.00;86.90
33673;DHT22;20011;51.510;9.942;2022-09-01T04:26:51;14.00;87.00
33673;DHT22;20011;51.510;9.942;2022-09-01T04:29:20;14.10;87.20
33673;DHT22;20011;51.510;9.942;2022-09-01T04:32:03;14.10;87.20
33673;DHT22;20011;51.510;9.942;2022-09-01T04:34:35;14.00;87.30
33673;DHT22;20011;51.510;9.942;2022-09-01T04:37:14;14.00;87.40
33673;DHT22;20011;51.510;9.942;2022-09-01T04:39:55;14.10;87.40
33673;DHT22;20011;51.510;9.942;2022-09-01T04:42:26;14.10;87.20
33673;DHT22;20011;51.510;9.942;2022-09-01T04:44:56;14.00;86.90
33673;DHT22;20011;51.510;9.942;2022-09-01T04:47:25;14.00;86.80
33673;DHT22;20011;51.510;9.942;2022-09-01T04:50:06;14.00;87.10
33673;DHT22;20011;51.510;9.942;2022-09-01T04:52:44;14.00;87.10
33673;DHT22;20011;51.510;9.942;2022-09-01T04:55:27;13.90;87.60
33673;DHT22;20011;51.510;9.942;2022-09-01T04:57:58;13.90;87.90
33673;DHT22;20011;51.510;9.942;2022-09-01T05:00:27;13.90;88.00
33673;DHT22;20011;51.510;9.942;2022-09-01T05:03:01;13.80;87.80
33673;DHT22;20011;51.510;9.942;2022-09-01T05:05:52;13.80;88.10
33673;DHT22;20011;51.510;9.942;2022-09-01T05:08:21;13.80;88.50
33673;DHT22;20011;51.510;9.942;2022-09-01T05:10:53;13.80;88.50
33673;DHT22;20011;51.510;9.942;2022-09-01T05:13:44;13.90;88.30
33673;DHT22;20011;51.510;9.942;2022-09-01T05:16:15;13.90;88.50
33673;DHT22;20011;51.510;9.942;2022-09-01T05:18:52;13.90;88.30
33673;DHT22;20011;51.510;9.942;2022-09-01T05:21:23;13.90;88.80
33673;DHT22;20011;51.510;9.942;2022-09-01T05:23:52;13.90;89.20
33673;DHT22;20011;51.510;9.942;2022-09-01T05:26:28;14.00;89.40
33673;DHT22;20011;51.510;9.942;2022-09-01T05:28:59;14.00;89.70
33673;DHT22;20011;51.510;9.942;2022-09-01T05:31:29;14.00;89.70
33673;DHT22;20011;51.510;9.942;2022-09-01T05:34:02;14.10;90.20
33673;DHT22;20011;51.510;9.942;2022-09-01T05:36:29;14.10;90.10
33673;DHT22;20011;51.510;9.942;2022-09-01T05:39:03;14.20;90.20
33673;DHT22;20011;51.510;9.942;2022-09-01T05:41:31;14.20;90.00
33673;DHT22;20011;51.510;9.942;2022-09-01T05:44:03;14.30;90.10
33673;DHT22;20011;51.510;9.942;2022-09-01T05:46:36;14.30;90.30
33673;DHT22;20011;51.510;9.942;2022-09-01T05:49:06;14.30;90.10
33673;DHT22;20011;51.510;9.942;2022-09-01T05:51:42;14.30;90.30
33673;DHT22;20011;51.510;9.942;2022-09-01T05:54:13;14.30;90.30
33673;DHT22;20011;51.510;9.942;2022-09-01T05:56:41;14.40;90.20
33673;DHT22;20011;51.510;9.942;2022-09-01T05:59:13;14.60;90.10
33673;DHT22;20011;51.510;9.942;2022-09-01T06:01:51;14.70;89.70
33673;DHT22;20011;51.510;9.942;2022-09-01T06:04:20;14.80;89.30
33673;DHT22;20011;51.510;9.942;2022-09-01T06:06:49;14.80;88.90
33673;DHT22;20011;51.510;9.942;2022-09-01T06:09:39;14.90;88.40
33673;DHT22;20011;51.510;9.942;2022-09-01T06:12:08;15.00;88.00
33673;DHT22;20011;51.510;9.942;2022-09-01T06:14:48;15.00;88.20
33673;DHT22;20011;51.510;9.942;2022-09-01T06:17:19;15.00;88.40
33673;DHT22;20011;51.510;9.942;2022-09-01T06:19:53;15.00;88.20
33673;DHT22;20011;51.510;9.942;2022-09-01T06:22:26;15.00;88.00
33673;DHT22;20011;51.510;9.942;2022-09-01T06:24:54;15.10;88.20
33673;DHT22;20011;51.510;9.942;2022-09-01T06:27:32;15.10;88.60
33673;DHT22;20011;51.510;9.942;2022-09-01T06:30:00;15.10;89.20
33673;DHT22;20011;51.510;9.942;2022-09-01T06:32:31;15.20;88.60
33673;DHT22;20011;51.510;9.942;2022-09-01T06:35:01;15.20;88.80
33673;DHT22;20011;51.510;9.942;2022-09-01T06:37:31;15.20;89.00
33673;DHT22;20011;51.510;9.942;2022-09-01T06:40:01;15.10;89.10
33673;DHT22;20011;51.510;9.942;2022-09-01T06:42:30;15.20;89.20
33673;DHT22;20011;51.510;9.942;2022-09-01T06:45:01;15.20;89.40
33673;DHT22;20011;51.510;9.942;2022-09-01T06:47:28;15.30;89.30
33673;DHT22;20011;51.510;9.942;2022-09-01T06:49:55;15.30;89.20
33673;DHT22;20011;51.510;9.942;2022-09-01T06:52:26;15.40;89.10
33673;DHT22;20011;51.510;9.942;2022-09-01T06:54:54;15.30;89.40
33673;DHT22;20011;51.510;9.942;2022-09-01T06:57:24;15.40;90.00
33673;DHT22;20011;51.510;9.942;2022-09-01T07:00:15;15.40;89.90
33673;DHT22;20011;51.510;9.942;2022-09-01T07:02:54;15.40;89.50
33673;DHT22;20011;51.510;9.942;2022-09-01T07:05:45;15.50;89.50
33673;DHT22;20011;51.510;9.942;2022-09-01T07:08:47;15.50;89.20
33673;DHT22;20011;51.510;9.942;2022-09-01T07:11:36;15.70;89.40
33673;DHT22;20011;51.510;9.942;2022-09-01T07:14:25;15.80;89.20
33673;DHT22;20011;51.510;9.942;2022-09-01T07:16:52;15.80;89.10
33673;DHT22;20011;51.510;9.942;2022-09-01T07:19:39;15.90;89.40
33673;DHT22;20011;51.510;9.942;2022-09-01T07:22:15;16.00;89.50
33673;DHT22;20011;51.510;9.942;2022-09-01T07:25:02;16.00;89.10
33673;DHT22;20011;51.510;9.942;2022-09-01T07:27:56;16.00;88.90
33673;DHT22;20011;51.510;9.942;2022-09-01T07:30:26;16.10;89.20
33673;DHT22;20011;51.510;9.942;2022-09-01T07:32:54;16.10;89.20
33673;DHT22;20011;51.510;9.942;2022-09-01T07:35:24;16.20;89.30
33673;DHT22;20011;51.510;9.942;2022-09-01T07:37:52;16.20;89.30
33673;DHT22;20011;51.510;9.942;2022-09-01T07:40:41;16.20;89.30
33673;DHT22;20011;51.510;9.942;2022-09-01T07:44:04;16.20;88.90
33673;DHT22;20011;51.510;9.942;2022-09-01T07:46:50;16.30;89.10
33673;DHT22;20011;51.510;9.942;2022-09-01T07:49:38;16.30;89.00
33673;DHT22;20011;51.510;9.942;2022-09-01T07:52:26;16.30;89.30
33673;DHT22;20011;51.510;9.942;2022-09-01T07:54:56;16.40;89.30
33673;DHT22;20011;51.510;9.942;2022-09-01T07:57:24;16.40;89.40
33673;DHT22;20011;51.510;9.942;2022-09-01T07:59:51;16.50;89.50
33673;DHT22;20011;51.510;9.942;2022-09-01T08:02:38;16.60;90.10
33673;DHT22;20011;51.510;9.942;2022-09-01T08:05:07;16.60;89.40
33673;DHT22;20011;51.510;9.942;2022-09-01T08:07:35;16.60;89.30
33673;DHT22;20011;51.510;9.942;2022-09-01T08:10:18;16.60;89.30
33673;DHT22;20011;51.510;9.942;2022-09-01T08:12:48;16.70;89.20
33673;DHT22;20011;51.510;9.942;2022-09-01T08:15:24;16.70;89.40
33673;DHT22;20011;51.510;9.942;2022-09-01T08:18:12;16.90;89.90
33673;DHT22;20011;51.510;9.942;2022-09-01T08:20:42;16.80;89.10
33673;DHT22;20011;51.510;9.942;2022-09-01T08:23:39;16.90;89.20
33673;DHT22;20011;51.510;9.942;2022-09-01T08:26:10;16.90;88.90
33673;DHT22;20011;51.510;9.942;2022-09-01T08:28:38;17.00;89.30
33673;DHT22;20011;51.510;9.942;2022-09-01T08:31:15;17.10;89.10
33673;DHT22;20011;51.510;9.942;2022-09-01T08:33:44;17.10;88.80
33673;DHT22;20011;51.510;9.942;2022-09-01T08:36:15;17.10;88.80
33673;DHT22;20011;51.510;9.942;2022-09-01T08:38:50;17.10;88.80
33673;DHT22;20011;51.510;9.942;2022-09-01T08:44:34;17.20;89.10
33673;DHT22;20011;51.510;9.942;2022-09-01T08:47:07;17.20;88.90
33673;DHT22;20011;51.510;9.942;2022-09-01T08:49:42;17.30;88.70
33673;DHT22;20011;51.510;9.942;2022-09-01T08:52:50;17.40;88.70
33673;DHT22;20011;51.510;9.942;2022-09-01T08:55:35;17.30;88.60
33673;DHT22;20011;51.510;9.942;2022-09-01T08:58:06;17.40;89.50
33673;DHT22;20011;51.510;9.942;2022-09-01T09:00:58;17.50;88.10
33673;DHT22;20011;51.510;9.942;2022-09-01T09:03:41;17.50;87.20
33673;DHT22;20011;51.510;9.942;2022-09-01T09:06:24;17.60;87.10
33673;DHT22;20011;51.510;9.942;2022-09-01T09:16:47;17.80;87.90
33673;DHT22;20011;51.510;9.942;2022-09-01T09:21:50;17.80;86.30
33673;DHT22;20011;51.510;9.942;2022-09-01T09:27:24;17.90;85.20
33673;DHT22;20011;51.510;9.942;2022-09-01T09:29:55;18.00;84.70
33673;DHT22;20011;51.510;9.942;2022-09-01T09:41:06;18.20;83.60
33673;DHT22;20011;51.510;9.942;2022-09-01T09:46:42;18.20;85.10
33673;DHT22;20011;51.510;9.942;2022-09-01T09:54:34;18.40;82.80
33673;DHT22;20011;51.510;9.942;2022-09-01T09:57:11;18.40;81.20
33673;DHT22;20011;51.510;9.942;2022-09-01T10:03:05;18.40;81.80
33673;DHT22;20011;51.510;9.942;2022-09-01T10:07:54;18.60;81.90
33673;DHT22;20011;51.510;9.942;2022-09-01T10:10:39;18.60;80.10
33673;DHT22;20011;51.510;9.942;2022-09-01T10:15:42;18.70;79.40
33673;DHT22;20011;51.510;9.942;2022-09-01T10:18:20;18.70;79.50
33673;DHT22;20011;51.510;9.942;2022-09-01T10:21:02;18.70;78.70
33673;DHT22;20011;51.510;9.942;2022-09-01T10:23:33;18.80;78.40
33673;DHT22;20011;51.510;9.942;2022-09-01T10:26:13;18.80;77.60
33673;DHT22;20011;51.510;9.942;2022-09-01T10:31:27;18.80;76.80
33673;DHT22;20011;51.510;9.942;2022-09-01T10:34:01;18.80;76.90
33673;DHT22;20011;51.510;9.942;2022-09-01T10:36:33;18.80;76.00
33673;DHT22;20011;51.510;9.942;2022-09-01T10:39:01;18.90;75.30
33673;DHT22;20011;51.510;9.942;2022-09-01T10:41:55;18.90;74.50
33673;DHT22;20011;51.510;9.942;2022-09-01T10:44:28;19.00;75.00
33673;DHT22;20011;51.510;9.942;2022-09-01T10:47:12;19.00;74.30
33673;DHT22;20011;51.510;9.942;2022-09-01T10:55:40;19.10;72.90
33673;DHT22;20011;51.510;9.942;2022-09-01T11:00:59;19.20;71.60
33673;DHT22;20011;51.510;9.942;2022-09-01T11:09:45;19.40;70.70
33673;DHT22;20011;51.510;9.942;2022-09-01T11:12:24;19.30;70.20
33673;DHT22;20011;51.510;9.942;2022-09-01T11:22:44;19.50;65.50
33673;DHT22;20011;51.510;9.942;2022-09-01T11:25:36;19.50;65.30
33673;DHT22;20011;51.510;9.942;2022-09-01T11:39:14;19.80;65.40
33673;DHT22;20011;51.510;9.942;2022-09-01T11:42:06;19.80;64.90
33673;DHT22;20011;51.510;9.942;2022-09-01T11:47:19;19.90;64.10
33673;DHT22;20011;51.510;9.942;2022-09-01T11:49:54;20.00;64.80
33673;DHT22;20011;51.510;9.942;2022-09-01T11:52:26;19.90;64.80
33673;DHT22;20011;51.510;9.942;2022-09-01T11:54:53;19.90;64.70
33673;DHT22;20011;51.510;9.942;2022-09-01T11:57:26;20.00;64.60
33673;DHT22;20011;51.510;9.942;2022-09-01T11:59:55;20.10;64.50
33673;DHT22;20011;51.510;9.942;2022-09-01T12:02:29;20.10;64.30
33673;DHT22;20011;51.510;9.942;2022-09-01T12:05:21;20.10;64.70
33673;DHT22;20011;51.510;9.942;2022-09-01T12:07:50;20.20;64.50
33673;DHT22;20011;51.510;9.942;2022-09-01T12:10:35;20.20;63.80
33673;DHT22;20011;51.510;9.942;2022-09-01T12:15:38;20.20;63.50
33673;DHT22;20011;51.510;9.942;2022-09-01T12:18:30;20.20;62.90
33673;DHT22;20011;51.510;9.942;2022-09-01T12:20:59;20.20;62.70
33673;DHT22;20011;51.510;9.942;2022-09-01T12:23:37;20.20;62.60
33673;DHT22;20011;51.510;9.942;2022-09-01T12:26:15;20.20;62.90
33673;DHT22;20011;51.510;9.942;2022-09-01T12:28:44;20.10;62.80
33673;DHT22;20011;51.510;9.942;2022-09-01T12:31:21;20.20;62.40
33673;DHT22;20011;51.510;9.942;2022-09-01T12:33:51;20.30;61.30
33673;DHT22;20011;51.510;9.942;2022-09-01T12:36:26;20.20;61.00
33673;DHT22;20011;51.510;9.942;2022-09-01T12:41:59;20.30;61.20
33673;DHT22;20011;51.510;9.942;2022-09-01T12:44:43;20.30;60.60
33673;DHT22;20011;51.510;9.942;2022-09-01T12:50:00;20.30;60.10
33673;DHT22;20011;51.510;9.942;2022-09-01T12:52:31;20.40;60.10
33673;DHT22;20011;51.510;9.942;2022-09-01T12:57:33;20.40;60.20
33673;DHT22;20011;51.510;9.942;2022-09-01T13:03:03;20.40;59.40
33673;DHT22;20011;51.510;9.942;2022-09-01T13:05:49;20.40;59.50
33673;DHT22;20011;51.510;9.942;2022-09-01T13:08:23;20.50;59.40
33673;DHT22;20011;51.510;9.942;2022-09-01T13:11:06;20.50;59.00
33673;DHT22;20011;51.510;9.942;2022-09-01T13:13:33;20.60;58.80
33673;DHT22;20011;51.510;9.942;2022-09-01T13:16:04;20.60;58.40
33673;DHT22;20011;51.510;9.942;2022-09-01T13:18:41;20.60;58.00
33673;DHT22;20011;51.510;9.942;2022-09-01T13:21:29;20.60;58.00
33673;DHT22;20011;51.510;9.942;2022-09-01T13:23:57;20.50;58.10
33673;DHT22;20011;51.510;9.942;2022-09-01T13:26:24;20.60;58.20
33673;DHT22;20011;51.510;9.942;2022-09-01T13:28:52;20.50;58.20
33673;DHT22;20011;51.510;9.942;2022-09-01T13:31:19;20.50;58.10
33673;DHT22;20011;51.510;9.942;2022-09-01T13:33:56;20.50;58.20
33673;DHT22;20011;51.510;9.942;2022-09-01T13:36:43;20.50;58.30
33673;DHT22;20011;51.510;9.942;2022-09-01T13:39:17;20.50;58.20
33673;DHT22;20011;51.510;9.942;2022-09-01T13:41:46;20.50;59.10
33673;DHT22;20011;51.510;9.942;2022-09-01T13:44:14;20.50;58.60
33673;DHT22;20011;51.510;9.942;2022-09-01T13:46:44;20.50;63.20
33673;DHT22;20011;51.510;9.942;2022-09-01T13:49:31;20.60;60.20
33673;DHT22;20011;51.510;9.942;2022-09-01T13:52:18;20.60;59.30
33673;DHT22;20011;51.510;9.942;2022-09-01T13:54:45;20.60;58.20
33673;DHT22;20011;51.510;9.942;2022-09-01T13:57:13;20.70;57.60
33673;DHT22;20011;51.510;9.942;2022-09-01T13:59:43;20.60;57.80
33673;DHT22;20011;51.510;9.942;2022-09-01T14:02:10;20.60;57.80
33673;DHT22;20011;51.510;9.942;2022-09-01T14:04:37;20.70;57.70
33673;DHT22;20011;51.510;9.942;2022-09-01T14:07:04;20.80;57.60
33673;DHT22;20011;51.510;9.942;2022-09-01T14:09:32;20.70;57.00
33673;DHT22;20011;51.510;9.942;2022-09-01T14:11:59;20.80;57.10
33673;DHT22;20011;51.510;9.942;2022-09-01T14:14:26;20.80;57.50
33673;DHT22;20011;51.510;9.942;2022-09-01T14:17:13;20.70;58.00
33673;DHT22;20011;51.510;9.942;2022-09-01T14:19:40;20.70;58.90
33673;DHT22;20011;51.510;9.942;2022-09-01T14:22:08;20.90;58.40
33673;DHT22;20011;51.510;9.942;2022-09-01T14:24:35;20.90;57.70
33673;DHT22;20011;51.510;9.942;2022-09-01T14:27:06;20.80;57.40
33673;DHT22;20011;51.510;9.942;2022-09-01T14:29:34;20.80;57.50
33673;DHT22;20011;51.510;9.942;2022-09-01T14:32:02;20.80;57.50
33673;DHT22;20011;51.510;9.942;2022-09-01T14:34:30;20.80;57.70
33673;DHT22;20011;51.510;9.942;2022-09-01T14:36:57;20.70;57.10
33673;DHT22;20011;51.510;9.942;2022-09-01T14:39:25;20.80;56.20
33673;DHT22;20011;51.510;9.942;2022-09-01T14:41:53;20.80;56.00
33673;DHT22;20011;51.510;9.942;2022-09-01T14:44:20;20.80;55.60
33673;DHT22;20011;51.510;9.942;2022-09-01T14:46:48;20.80;56.90
33673;DHT22;20011;51.510;9.942;2022-09-01T14:49:17;20.80;56.40
33673;DHT22;20011;51.510;9.942;2022-09-01T14:51:48;20.70;56.50
33673;DHT22;20011;51.510;9.942;2022-09-01T14:54:38;20.70;56.00
33673;DHT22;20011;51.510;9.942;2022-09-01T14:57:06;20.70;56.50
33673;DHT22;20011;51.510;9.942;2022-09-01T14:59:53;20.70;55.60
33673;DHT22;20011;51.510;9.942;2022-09-01T15:02:20;20.70;55.60
33673;DHT22;20011;51.510;9.942;2022-09-01T15:04:47;20.60;55.80
33673;DHT22;20011;51.510;9.942;2022-09-01T15:07:15;20.60;56.40
33673;DHT22;20011;51.510;9.942;2022-09-01T15:09:42;20.50;56.10
33673;DHT22;20011;51.510;9.942;2022-09-01T15:12:09;20.50;55.80
33673;DHT22;20011;51.510;9.942;2022-09-01T15:14:36;20.60;55.90
33673;DHT22;20011;51.510;9.942;2022-09-01T15:17:04;20.50;55.60
33673;DHT22;20011;51.510;9.942;2022-09-01T15:19:31;20.50;55.60
33673;DHT22;20011;51.510;9.942;2022-09-01T15:21:58;20.50;56.00
33673;DHT22;20011;51.510;9.942;2022-09-01T15:24:27;20.50;56.00
33673;DHT22;20011;51.510;9.942;2022-09-01T15:26:54;20.50;56.30
33673;DHT22;20011;51.510;9.942;2022-09-01T15:29:22;20.50;56.30
33673;DHT22;20011;51.510;9.942;2022-09-01T15:31:50;20.40;56.40
33673;DHT22;20011;51.510;9.942;2022-09-01T15:34:17;20.50;56.70
33673;DHT22;20011;51.510;9.942;2022-09-01T15:36:44;20.50;56.80
33673;DHT22;20011;51.510;9.942;2022-09-01T15:39:11;20.40;56.80
33673;DHT22;20011;51.510;9.942;2022-09-01T15:41:38;20.40;57.40
33673;DHT22;20011;51.510;9.942;2022-09-01T15:44:06;20.40;57.20
33673;DHT22;20011;51.510;9.942;2022-09-01T15:46:35;20.40;57.20
33673;DHT22;20011;51.510;9.942;2022-09-01T15:49:07;20.40;56.80
33673;DHT22;20011;51.510;9.942;2022-09-01T15:51:40;20.40;56.70
33673;DHT22;20011;51.510;9.942;2022-09-01T15:54:16;20.40;56.30
33673;DHT22;20011;51.510;9.942;2022-09-01T15:56:44;20.40;55.90
33673;DHT22;20011;51.510;9.942;2022-09-01T15:59:13;20.40;56.00
33673;DHT22;20011;51.510;9.942;2022-09-01T16:01:44;20.40;55.50
33673;DHT22;20011;51.510;9.942;2022-09-01T16:04:13;20.40;55.40
33673;DHT22;20011;51.510;9.942;2022-09-01T16:06:46;20.40;55.00
33673;DHT22;20011;51.510;9.942;2022-09-01T16:09:14;20.40;54.90
33673;DHT22;20011;51.510;9.942;2022-09-01T16:11:41;20.40;54.80
33673;DHT22;20011;51.510;9.942;2022-09-01T16:14:08;20.30;54.70
33673;DHT22;20011;51.510;9.942;2022-09-01T16:16:52;20.30;54.60
33673;DHT22;20011;51.510;9.942;2022-09-01T16:22:32;20.30;55.60
33673;DHT22;20011;51.510;9.942;2022-09-01T16:27:50;20.20;55.30
33673;DHT22;20011;51.510;9.942;2022-09-01T16:30:21;20.20;55.20
33673;DHT22;20011;51.510;9.942;2022-09-01T16:32:49;20.20;55.00
33673;DHT22;20011;51.510;9.942;2022-09-01T16:35:17;20.10;54.60
33673;DHT22;20011;51.510;9.942;2022-09-01T16:40:53;20.20;54.40
33673;DHT22;20011;51.510;9.942;2022-09-01T16:49:09;20.10;54.40
33673;DHT22;20011;51.510;9.942;2022-09-01T16:52:43;20.10;54.30
33673;DHT22;20011;51.510;9.942;2022-09-01T16:58:07;20.20;54.60
33673;DHT22;20011;51.510;9.942;2022-09-01T17:00:49;20.10;54.20
33673;DHT22;20011;51.510;9.942;2022-09-01T17:03:35;20.20;54.30
33673;DHT22;20011;51.510;9.942;2022-09-01T17:06:30;20.20;55.30
33673;DHT22;20011;51.510;9.942;2022-09-01T17:09:09;20.20;54.10
33673;DHT22;20011;51.510;9.942;2022-09-01T17:11:55;20.10;53.60
33673;DHT22;20011;51.510;9.942;2022-09-01T17:14:36;20.10;53.50
33673;DHT22;20011;51.510;9.942;2022-09-01T17:17:11;20.10;53.50
33673;DHT22;20011;51.510;9.942;2022-09-01T17:19:40;20.10;53.70
33673;DHT22;20011;51.510;9.942;2022-09-01T17:22:10;20.10;54.00
33673;DHT22;20011;51.510;9.942;2022-09-01T17:24:52;20.10;54.20
33673;DHT22;20011;51.510;9.942;2022-09-01T17:27:34;20.10;54.20
33673;DHT22;20011;51.510;9.942;2022-09-01T17:30:04;20.00;54.30
33673;DHT22;20011;51.510;9.942;2022-09-01T17:46:52;19.90;54.10
33673;DHT22;20011;51.510;9.942;2022-09-01T17:49:35;19.90;54.00
33673;DHT22;20011;51.510;9.942;2022-09-01T17:53:03;19.90;54.10
33673;DHT22;20011;51.510;9.942;2022-09-01T17:58:02;19.80;54.30
33673;DHT22;20011;51.510;9.942;2022-09-01T18:00:42;19.80;54.10
33673;DHT22;20011;51.510;9.942;2022-09-01T18:06:01;19.80;54.20
33673;DHT22;20011;51.510;9.942;2022-09-01T18:11:01;19.70;54.30
33673;DHT22;20011;51.510;9.942;2022-09-01T18:14:02;19.70;54.60
33673;DHT22;20011;51.510;9.942;2022-09-01T18:19:28;19.70;54.80
33673;DHT22;20011;51.510;9.942;2022-09-01T18:22:05;19.50;54.70
33673;DHT22;20011;51.510;9.942;2022-09-01T18:24:52;19.60;55.00
33673;DHT22;20011;51.510;9.942;2022-09-01T18:27:20;19.50;55.00
33673;DHT22;20011;51.510;9.942;2022-09-01T18:29:51;19.50;55.50
33673;DHT22;20011;51.510;9.942;2022-09-01T18:37:58;19.40;55.50
33673;DHT22;20011;51.510;9.942;2022-09-01T18:41:00;19.30;55.80
33673;DHT22;20011;51.510;9.942;2022-09-01T18:43:36;19.30;55.30